createdAt,value
2018-04-17T04:09:23.017Z,0
2018-04-17T04:09:48.506Z,0
2018-04-17T04:10:14.113Z,0
2018-04-17T04:10:39.573Z,0
2018-04-17T04:11:05.070Z,0
2018-04-17T04:11:30.567Z,0
2018-04-17T04:11:56.068Z,0
2018-04-17T04:12:21.572Z,0
2018-04-17T04:12:47.070Z,0
2018-04-17T04:13:12.559Z,0
2018-04-17T04:13:38.049Z,0
2018-04-17T04:14:03.707Z,0
2018-04-17T04:14:29.238Z,0
2018-04-17T04:14:54.734Z,0
2018-04-17T04:15:20.260Z,0
2018-04-17T04:15:45.750Z,0
2018-04-17T04:16:11.259Z,0
2018-04-17T04:16:36.723Z,0
2018-04-17T04:17:02.176Z,0
2018-04-17T04:17:27.659Z,0
2018-04-17T04:17:53.109Z,0
2018-04-17T04:18:18.585Z,0
2018-04-17T04:18:44.054Z,0
2018-04-17T04:19:09.526Z,0
2018-04-17T04:19:34.980Z,0
2018-04-17T04:20:00.462Z,0
2018-04-17T04:20:26.076Z,0
2018-04-17T04:20:51.756Z,0
2018-04-17T04:21:17.204Z,0
2018-04-17T04:21:42.724Z,0
2018-04-17T04:22:08.514Z,0
2018-04-17T04:22:34.071Z,0
2018-04-17T04:22:59.536Z,0
2018-04-17T04:23:25.109Z,5
2018-04-17T04:23:50.637Z,5
2018-04-17T04:24:16.193Z,5
2018-04-17T04:24:41.644Z,5
2018-04-17T04:25:07.210Z,5
2018-04-17T04:25:32.608Z,5
2018-04-17T04:25:58.105Z,5
2018-04-17T04:26:23.590Z,5
2018-04-17T04:26:49.058Z,5
2018-04-17T04:27:14.559Z,5
2018-04-17T04:27:40.031Z,5
2018-04-17T04:28:05.671Z,5
2018-04-17T04:28:31.418Z,5
2018-04-17T04:28:56.873Z,5
2018-04-17T04:29:22.422Z,5
2018-04-17T04:29:47.906Z,5
2018-04-17T04:30:13.343Z,5
2018-04-17T04:30:38.920Z,5
2018-04-17T04:31:04.409Z,5
2018-04-17T04:31:30.077Z,10
2018-04-17T04:31:55.792Z,10
2018-04-17T04:32:21.306Z,10
2018-04-17T04:32:46.948Z,10
2018-04-17T04:33:12.595Z,10
2018-04-17T04:33:38.148Z,10
2018-04-17T04:34:03.908Z,10
2018-04-17T04:34:29.654Z,10
2018-04-17T04:34:55.348Z,10
2018-04-17T04:35:21.865Z,10
2018-04-17T04:35:47.672Z,10
2018-04-17T04:36:13.280Z,10
2018-04-17T04:36:38.959Z,10
2018-04-17T04:37:04.878Z,15
2018-04-17T04:37:30.517Z,15
2018-04-17T04:37:55.933Z,15
2018-04-17T04:38:21.525Z,15
2018-04-17T04:38:47.198Z,15
2018-04-17T04:39:12.822Z,15
2018-04-17T04:39:38.643Z,15
2018-04-17T04:40:04.568Z,15
2018-04-17T04:40:30.089Z,15
2018-04-17T04:40:55.868Z,15
2018-04-17T04:41:21.242Z,15
2018-04-17T04:41:46.789Z,20
2018-04-17T04:42:12.715Z,20
2018-04-17T04:42:38.884Z,20
2018-04-17T04:43:04.432Z,20
2018-04-17T04:43:30.484Z,20
2018-04-17T04:43:55.987Z,20
2018-04-17T04:44:21.500Z,20
2018-04-17T04:44:47.232Z,20
2018-04-17T04:45:12.779Z,20
2018-04-17T04:45:38.232Z,25
2018-04-17T04:46:03.829Z,25
2018-04-17T04:46:29.530Z,25
2018-04-17T04:46:55.229Z,25
2018-04-17T04:47:21.113Z,25
2018-04-17T04:47:46.611Z,25
2018-04-17T04:48:12.313Z,25
2018-04-17T04:48:37.722Z,25
2018-04-17T04:49:03.196Z,25
2018-04-17T04:49:28.983Z,30
2018-04-17T04:49:55.114Z,30
2018-04-17T04:50:20.779Z,30
2018-04-17T04:50:47.049Z,30
2018-04-17T04:51:12.662Z,30
2018-04-17T04:51:38.191Z,30
2018-04-17T04:52:04.022Z,30
2018-04-17T04:52:29.459Z,35
2018-04-17T04:52:54.932Z,35
2018-04-17T04:53:20.404Z,35
2018-04-17T04:53:45.877Z,35
2018-04-17T04:54:11.304Z,35
2018-04-17T04:54:36.793Z,35
2018-04-17T04:55:02.281Z,35
2018-04-17T04:55:27.818Z,40
2018-04-17T04:55:53.360Z,40
2018-04-17T04:56:18.807Z,40
2018-04-17T04:56:44.343Z,40
2018-04-17T04:57:09.775Z,40
2018-04-17T04:57:35.228Z,40
2018-04-17T04:58:00.709Z,40
2018-04-17T04:58:26.189Z,45
2018-04-17T04:58:51.634Z,45
2018-04-17T04:59:17.244Z,45
2018-04-17T04:59:42.786Z,45
2018-04-17T05:00:08.173Z,45
2018-04-17T05:00:33.655Z,45
2018-04-17T05:00:59.098Z,45
2018-04-17T05:01:24.609Z,45
2018-04-17T05:01:50.032Z,50
2018-04-17T05:02:15.522Z,50
2018-04-17T05:02:41.000Z,50
2018-04-17T05:03:06.481Z,50
2018-04-17T05:03:31.958Z,50
2018-04-17T05:03:57.543Z,50
2018-04-17T05:04:22.939Z,55
2018-04-17T05:04:48.440Z,55
2018-04-17T05:05:13.987Z,55
2018-04-17T05:05:39.487Z,55
2018-04-17T05:06:05.019Z,55
2018-04-17T05:06:30.570Z,55
2018-04-17T05:06:56.019Z,55
2018-04-17T05:07:21.516Z,60
2018-04-17T05:07:46.989Z,60
2018-04-17T05:08:12.438Z,60
2018-04-17T05:08:38.042Z,60
2018-04-17T05:09:03.578Z,60
2018-04-17T05:09:28.973Z,60
2018-04-17T05:09:54.454Z,60
2018-04-17T05:10:19.930Z,65
2018-04-17T05:10:45.372Z,65
2018-04-17T05:11:10.914Z,65
2018-04-17T05:11:36.377Z,65
2018-04-17T05:12:01.806Z,65
2018-04-17T05:12:27.240Z,65
2018-04-17T05:12:52.852Z,70
2018-04-17T05:13:18.195Z,70
2018-04-17T05:13:43.626Z,70
2018-04-17T05:14:09.138Z,70
2018-04-17T05:14:34.637Z,70
2018-04-17T05:15:00.044Z,70
2018-04-17T05:15:25.569Z,75
2018-04-17T05:15:51.011Z,75
2018-04-17T05:16:16.472Z,75
2018-04-17T05:16:42.019Z,75
2018-04-17T05:17:07.562Z,75
2018-04-17T05:17:33.054Z,75
2018-04-17T05:17:58.554Z,75
2018-04-17T05:18:24.044Z,75
2018-04-17T05:18:49.475Z,75
2018-04-17T05:19:14.957Z,75
2018-04-17T05:19:40.412Z,75
2018-04-17T05:20:05.892Z,75
2018-04-17T05:20:31.449Z,80
2018-04-17T05:20:56.806Z,80
2018-04-17T05:21:22.342Z,80
2018-04-17T05:21:47.799Z,80
2018-04-17T05:22:13.223Z,85
2018-04-17T05:22:38.716Z,85
2018-04-17T05:23:04.252Z,85
2018-04-17T05:23:29.691Z,85
2018-04-17T05:23:55.208Z,85
2018-04-17T05:24:20.771Z,90
2018-04-17T05:24:46.297Z,90
2018-04-17T05:25:11.893Z,90
2018-04-17T05:25:37.379Z,90
2018-04-17T05:26:02.798Z,90
2018-04-17T05:26:28.299Z,90
2018-04-17T05:26:53.836Z,100
2018-04-17T05:27:19.424Z,95
2018-04-17T05:27:45.087Z,95
2018-04-17T05:28:10.565Z,100
2018-04-17T05:28:36.000Z,100
2018-04-17T05:29:01.446Z,100
2018-04-17T05:29:26.958Z,105
2018-04-17T05:29:52.356Z,105
2018-04-17T05:30:17.811Z,110
2018-04-17T05:30:43.347Z,110
2018-04-17T05:31:08.841Z,110
2018-04-17T05:31:34.264Z,110
2018-04-17T05:31:59.775Z,110
2018-04-17T05:32:25.194Z,110
2018-04-17T05:32:50.673Z,115
2018-04-17T05:33:16.171Z,115
2018-04-17T05:33:41.669Z,115
2018-04-17T05:34:07.109Z,115
2018-04-17T05:34:32.544Z,120
2018-04-17T05:34:58.079Z,120
2018-04-17T05:35:23.579Z,120
2018-04-17T05:35:49.019Z,120
2018-04-17T05:36:14.511Z,120
2018-04-17T05:36:40.006Z,120
2018-04-17T05:37:05.497Z,125
2018-04-17T05:37:30.964Z,125
2018-04-17T05:37:56.388Z,125
2018-04-17T05:38:21.842Z,125
2018-04-17T05:38:47.295Z,125
2018-04-17T05:39:12.797Z,125
2018-04-17T05:39:38.287Z,130
2018-04-17T05:40:03.739Z,130
2018-04-17T05:40:29.275Z,130
2018-04-17T05:40:54.688Z,130
2018-04-17T05:41:20.172Z,130
2018-04-17T05:41:45.667Z,130
2018-04-17T05:42:11.102Z,130
2018-04-17T05:42:36.519Z,135
2018-04-17T05:43:01.981Z,135
2018-04-17T05:43:27.529Z,140
2018-04-17T05:43:52.981Z,135
2018-04-17T05:44:18.416Z,135
2018-04-17T05:44:43.910Z,145
2018-04-17T05:45:09.344Z,140
2018-04-17T05:45:34.844Z,140
2018-04-17T05:46:00.309Z,140
2018-04-17T05:46:25.749Z,140
2018-04-17T05:46:51.154Z,140
2018-04-17T05:47:16.627Z,140
2018-04-17T05:47:42.150Z,145
2018-04-17T05:48:07.538Z,145
2018-04-17T05:48:33.066Z,145
2018-04-17T05:48:58.565Z,145
2018-04-17T05:49:24.034Z,150
2018-04-17T05:49:49.524Z,150
2018-04-17T05:50:14.998Z,150
2018-04-17T05:50:40.477Z,150
2018-04-17T05:51:05.869Z,150
2018-04-17T05:51:31.316Z,155
2018-04-17T05:51:56.858Z,155
2018-04-17T05:52:22.344Z,155
2018-04-17T05:52:47.762Z,155
2018-04-17T05:53:13.261Z,155
2018-04-17T05:53:38.663Z,155
2018-04-17T05:54:04.182Z,165
2018-04-17T05:54:29.632Z,160
2018-04-17T05:54:55.116Z,160
2018-04-17T05:55:20.490Z,160
2018-04-17T05:55:45.931Z,160
2018-04-17T05:56:11.422Z,160
2018-04-17T05:56:36.915Z,160
2018-04-17T05:57:02.311Z,160
2018-04-17T05:57:27.869Z,160
2018-04-17T05:57:53.277Z,160
2018-04-17T05:58:18.817Z,160
2018-04-17T05:58:44.365Z,165
2018-04-17T05:59:09.803Z,165
2018-04-17T05:59:35.285Z,165
2018-04-17T06:00:00.773Z,165
2018-04-17T06:00:26.444Z,165
2018-04-17T06:00:51.905Z,165
2018-04-17T06:01:17.454Z,165
2018-04-17T06:01:42.974Z,165
2018-04-17T06:02:08.474Z,165
2018-04-17T06:02:33.994Z,165
2018-04-17T06:02:59.440Z,165
2018-04-17T06:03:24.954Z,165
2018-04-17T06:03:50.377Z,165
2018-04-17T06:04:15.828Z,170
2018-04-17T06:04:41.286Z,175
2018-04-17T06:05:06.824Z,175
2018-04-17T06:05:32.454Z,170
2018-04-17T06:05:57.834Z,170
2018-04-17T06:06:23.448Z,170
2018-04-17T06:06:48.883Z,170
2018-04-17T06:07:14.375Z,170
2018-04-17T06:07:39.848Z,170
2018-04-17T06:08:05.372Z,175
2018-04-17T06:08:30.821Z,175
2018-04-17T06:08:56.296Z,175
2018-04-17T06:09:21.764Z,175
2018-04-17T06:09:47.257Z,175
2018-04-17T06:10:12.902Z,175
2018-04-17T06:10:38.351Z,175
2018-04-17T06:11:03.908Z,175
2018-04-17T06:11:29.313Z,180
2018-04-17T06:11:54.814Z,180
2018-04-17T06:12:20.297Z,180
2018-04-17T06:12:45.789Z,180
2018-04-17T06:13:11.357Z,180
2018-04-17T06:13:36.809Z,180
2018-04-17T06:14:02.497Z,185
2018-04-17T06:14:28.025Z,185
2018-04-17T06:14:53.503Z,185
2018-04-17T06:15:19.006Z,185
2018-04-17T06:15:44.514Z,185
2018-04-17T06:16:10.013Z,185
2018-04-17T06:16:35.938Z,185
2018-04-17T06:17:01.457Z,190
2018-04-17T06:17:26.988Z,190
2018-04-17T06:17:52.470Z,190
2018-04-17T06:18:18.278Z,190
2018-04-17T06:18:43.816Z,190
2018-04-17T06:19:09.379Z,190
2018-04-17T06:19:34.880Z,195
2018-04-17T06:20:00.874Z,190
2018-04-17T06:20:26.378Z,195
2018-04-17T06:20:51.902Z,195
2018-04-17T06:21:17.301Z,195
2018-04-17T06:21:42.714Z,195
2018-04-17T06:22:08.272Z,195
2018-04-17T06:22:33.762Z,195
2018-04-17T06:22:59.205Z,195
2018-04-17T06:23:24.666Z,195
2018-04-17T06:23:50.259Z,200
2018-04-17T06:24:15.794Z,200
2018-04-17T06:24:41.278Z,200
2018-04-17T06:25:06.701Z,200
2018-04-17T06:25:32.160Z,200
2018-04-17T06:25:57.792Z,200
2018-04-17T06:26:23.159Z,200
2018-04-17T06:26:48.833Z,205
2018-04-17T06:27:15.288Z,205
2018-04-17T06:27:40.595Z,205
2018-04-17T06:28:06.185Z,205
2018-04-17T06:28:31.752Z,205
2018-04-17T06:28:57.188Z,210
2018-04-17T06:29:22.789Z,215
2018-04-17T06:29:48.273Z,210
2018-04-17T06:30:13.746Z,215
2018-04-17T06:30:39.280Z,225
2018-04-17T06:31:04.671Z,250
2018-04-17T06:31:30.271Z,270
2018-04-17T06:31:55.776Z,290
2018-04-17T06:32:21.490Z,300
2018-04-17T06:32:47.145Z,295
2018-04-17T06:33:12.597Z,290
2018-04-17T06:33:38.509Z,290
2018-04-17T06:34:04.097Z,305
2018-04-17T06:34:30.117Z,335
2018-04-17T06:34:55.784Z,375
2018-04-17T06:35:21.465Z,435
2018-04-17T06:35:47.168Z,505
2018-04-17T06:36:12.938Z,570
2018-04-17T06:36:38.557Z,635
2018-04-17T06:37:04.202Z,675
2018-04-17T06:37:29.805Z,690
2018-04-17T06:37:56.113Z,675
2018-04-17T06:38:21.695Z,670
2018-04-17T06:38:47.227Z,650
2018-04-17T06:39:12.705Z,650
2018-04-17T06:39:38.227Z,640
2018-04-17T06:40:03.720Z,630
2018-04-17T06:40:29.208Z,645
2018-04-17T06:40:54.689Z,655
2018-04-17T06:41:20.192Z,660
2018-04-17T06:41:45.742Z,650
2018-04-17T06:42:11.191Z,620
2018-04-17T06:42:36.665Z,610
2018-04-17T06:43:02.161Z,595
2018-04-17T06:43:27.662Z,595
2018-04-17T06:43:53.146Z,600
2018-04-17T06:44:18.624Z,610
2018-04-17T06:44:44.156Z,610
2018-04-17T06:45:09.661Z,605
2018-04-17T06:45:35.187Z,575
2018-04-17T06:46:00.695Z,540
2018-04-17T06:46:26.206Z,490
2018-04-17T06:46:51.849Z,425
2018-04-17T06:47:17.415Z,360
2018-04-17T06:47:43.242Z,305
2018-04-17T06:48:08.627Z,260
2018-04-17T06:48:34.125Z,240
2018-04-17T06:48:59.621Z,235
2018-04-17T06:49:25.098Z,235
2018-04-17T06:49:50.577Z,235
2018-04-17T06:50:16.111Z,235
2018-04-17T06:50:41.619Z,230
2018-04-17T06:51:07.337Z,230
2018-04-17T06:51:32.812Z,230
2018-04-17T06:51:58.352Z,230
2018-04-17T06:52:23.937Z,230
2018-04-17T06:52:49.530Z,225
2018-04-17T06:53:15.102Z,225
2018-04-17T06:53:40.579Z,225
2018-04-17T06:54:06.045Z,225
2018-04-17T06:54:31.536Z,225
2018-04-17T06:54:57.026Z,225
2018-04-17T06:55:22.506Z,230
2018-04-17T06:55:47.999Z,225
2018-04-17T06:56:13.652Z,225
2018-04-17T06:56:39.147Z,225
2018-04-17T06:57:04.632Z,225
2018-04-17T06:57:30.131Z,225
2018-04-17T06:57:55.624Z,225
2018-04-17T06:58:21.138Z,225
2018-04-17T06:58:46.648Z,225
2018-04-17T06:59:12.138Z,225
2018-04-17T06:59:37.625Z,225
2018-04-17T07:00:03.121Z,225
2018-04-17T07:00:28.592Z,225
2018-04-17T07:00:54.061Z,225
2018-04-17T07:01:19.543Z,225
2018-04-17T07:01:45.046Z,225
2018-04-17T07:02:10.747Z,225
2018-04-17T07:02:36.230Z,225
2018-04-17T07:03:01.720Z,225
2018-04-17T07:03:27.203Z,225
2018-04-17T07:03:52.701Z,225
2018-04-17T07:04:18.150Z,225
2018-04-17T07:04:43.693Z,225
2018-04-17T07:05:09.168Z,225
2018-04-17T07:05:34.664Z,225
2018-04-17T07:06:00.194Z,225
2018-04-17T07:06:25.682Z,225
2018-04-17T07:06:51.171Z,225
2018-04-17T07:07:16.664Z,225
2018-04-17T07:07:42.181Z,225
2018-04-17T07:08:07.668Z,225
2018-04-17T07:08:33.175Z,225
2018-04-17T07:08:58.671Z,220
2018-04-17T07:09:24.206Z,225
2018-04-17T07:09:49.706Z,225
2018-04-17T07:10:15.205Z,225
2018-04-17T07:10:40.675Z,225
2018-04-17T07:11:06.159Z,225
2018-04-17T07:11:31.667Z,230
2018-04-17T07:11:57.172Z,230
2018-04-17T07:12:22.673Z,230
2018-04-17T07:12:48.172Z,230
2018-04-17T07:13:13.759Z,230
2018-04-17T07:13:39.324Z,230
2018-04-17T07:14:04.803Z,230
2018-04-17T07:14:30.323Z,235
2018-04-17T07:14:55.783Z,230
2018-04-17T07:15:21.328Z,230
2018-04-17T07:15:46.820Z,230
2018-04-17T07:16:12.312Z,230
2018-04-17T07:16:37.817Z,230
2018-04-17T07:17:03.332Z,230
2018-04-17T07:17:28.830Z,230
2018-04-17T07:17:54.312Z,230
2018-04-17T07:18:19.807Z,225
2018-04-17T07:18:45.322Z,225
2018-04-17T07:19:10.832Z,230
2018-04-17T07:19:36.309Z,230
2018-04-17T07:20:01.822Z,230
2018-04-17T07:20:27.324Z,230
2018-04-17T07:20:52.828Z,235
2018-04-17T07:21:18.315Z,235
2018-04-17T07:22:31.684Z,235
2018-04-17T07:22:57.195Z,235
2018-04-17T07:23:22.672Z,235
2018-04-17T07:23:48.161Z,235
2018-04-17T07:24:13.675Z,235
2018-04-17T07:24:39.153Z,235
2018-04-17T07:25:04.647Z,235
2018-04-17T07:25:30.147Z,235
2018-04-17T07:25:55.644Z,235
2018-04-17T07:26:21.181Z,235
2018-04-17T07:26:46.729Z,235
2018-04-17T07:27:12.243Z,240
2018-04-17T07:27:37.690Z,235
2018-04-17T07:28:03.157Z,235
2018-04-17T07:28:28.681Z,235
2018-04-17T07:28:54.188Z,240
2018-04-17T07:29:19.711Z,240
2018-04-17T07:29:45.200Z,240
2018-04-17T07:30:10.712Z,240
2018-04-17T07:30:36.174Z,235
2018-04-17T07:31:01.682Z,235
2018-04-17T07:31:27.166Z,235
2018-04-17T07:31:52.656Z,235
2018-04-17T07:32:18.152Z,235
2018-04-17T07:32:43.662Z,235
2018-04-17T07:33:09.156Z,235
2018-04-17T07:33:34.654Z,235
2018-04-17T07:34:00.157Z,235
2018-04-17T07:34:25.685Z,230
2018-04-17T07:34:51.160Z,225
2018-04-17T07:35:16.678Z,230
2018-04-17T07:35:42.157Z,235
2018-04-17T07:36:07.640Z,235
2018-04-17T07:36:33.156Z,235
2018-04-17T07:36:58.669Z,235
2018-04-17T07:37:24.157Z,235
2018-04-17T07:37:49.651Z,235
2018-04-17T07:38:15.137Z,235
2018-04-17T07:38:40.608Z,235
2018-04-17T07:39:06.115Z,235
2018-04-17T07:39:31.634Z,235
2018-04-17T07:39:57.150Z,235
2018-04-17T07:40:22.634Z,235
2018-04-17T07:40:48.130Z,235
2018-04-17T07:41:13.659Z,235
2018-04-17T07:41:39.124Z,230
2018-04-17T07:42:04.612Z,235
2018-04-17T07:42:30.115Z,235
2018-04-17T07:42:55.607Z,235
2018-04-17T07:43:21.101Z,235
2018-04-17T07:43:46.594Z,235
2018-04-17T07:44:12.139Z,235
2018-04-17T07:44:37.607Z,230
2018-04-17T07:45:03.067Z,235
2018-04-17T07:45:28.572Z,230
2018-04-17T07:45:54.033Z,230
2018-04-17T07:46:19.530Z,230
2018-04-17T07:46:45.027Z,230
2018-04-17T07:47:10.528Z,230
2018-04-17T07:47:35.988Z,225
2018-04-17T07:48:01.481Z,230
2018-04-17T07:48:26.982Z,230
2018-04-17T07:48:52.472Z,230
2018-04-17T07:49:17.965Z,230
2018-04-17T07:49:43.431Z,230
2018-04-17T07:50:08.940Z,230
2018-04-17T07:50:34.431Z,230
2018-04-17T07:50:59.903Z,230
2018-04-17T07:51:25.400Z,230
2018-04-17T07:51:50.918Z,230
2018-04-17T07:52:16.402Z,230
2018-04-17T07:52:41.888Z,230
2018-04-17T07:53:07.393Z,230
2018-04-17T07:53:32.851Z,230
2018-04-17T07:53:58.382Z,235
2018-04-17T07:54:23.872Z,230
2018-04-17T07:54:49.376Z,230
2018-04-17T07:55:14.838Z,235
2018-04-17T07:55:40.338Z,230
2018-04-17T07:56:05.847Z,225
2018-04-17T07:56:31.347Z,225
2018-04-17T07:56:56.844Z,225
2018-04-17T07:57:22.372Z,230
2018-04-17T07:57:47.881Z,225
2018-04-17T07:58:13.371Z,220
2018-04-17T07:58:38.843Z,220
2018-04-17T07:59:04.371Z,215
2018-04-17T07:59:29.817Z,215
2018-04-17T07:59:55.284Z,205
2018-04-17T08:00:20.771Z,205
2018-04-17T08:00:46.227Z,215
2018-04-17T08:01:11.751Z,210
2018-04-17T08:01:37.241Z,210
2018-04-17T08:02:02.750Z,205
2018-04-17T08:02:28.187Z,205
2018-04-17T08:02:53.663Z,210
2018-04-17T08:03:19.148Z,200
2018-04-17T08:03:44.642Z,200
2018-04-17T08:04:10.174Z,210
2018-04-17T08:04:35.669Z,210
2018-04-17T08:05:01.165Z,210
2018-04-17T08:05:26.633Z,205
2018-04-17T08:05:52.124Z,205
2018-04-17T08:06:17.628Z,205
2018-04-17T08:06:43.121Z,205
2018-04-17T08:07:08.620Z,205
2018-04-17T08:07:34.124Z,205
2018-04-17T08:07:59.618Z,205
2018-04-17T08:08:25.167Z,205
2018-04-17T08:08:50.652Z,205
2018-04-17T08:09:16.207Z,205
2018-04-17T08:09:41.724Z,205
2018-04-17T08:10:07.220Z,205
2018-04-17T08:10:32.697Z,205
2018-04-17T08:10:58.169Z,205
2018-04-17T08:11:23.658Z,205
2018-04-17T08:11:49.221Z,205
2018-04-17T08:12:14.685Z,205
2018-04-17T08:12:40.193Z,205
2018-04-17T08:13:05.658Z,200
2018-04-17T08:13:31.213Z,205
2018-04-17T08:13:56.760Z,200
2018-04-17T08:14:22.271Z,200
2018-04-17T08:14:47.832Z,200
2018-04-17T08:15:13.384Z,200
2018-04-17T08:15:38.958Z,200
2018-04-17T08:16:04.519Z,200
2018-04-17T08:16:30.101Z,205
2018-04-17T08:16:55.673Z,200
2018-04-17T08:17:21.187Z,195
2018-04-17T08:17:46.770Z,195
2018-04-17T08:18:12.558Z,195
2018-04-17T08:18:38.091Z,195
2018-04-17T08:19:03.712Z,195
2018-04-17T08:19:29.246Z,195
2018-04-17T08:19:54.832Z,195
2018-04-17T08:20:20.388Z,195
2018-04-17T08:20:46.049Z,195
2018-04-17T08:22:10.215Z,195
2018-04-17T08:22:35.773Z,190
2018-04-17T08:23:01.372Z,190
2018-04-17T08:23:26.974Z,195
2018-04-17T08:23:52.651Z,190
2018-04-17T08:24:18.222Z,190
2018-04-17T08:24:43.811Z,190
2018-04-17T08:25:09.401Z,190
2018-04-17T08:25:35.071Z,190
2018-04-17T08:26:00.614Z,190
2018-04-17T08:26:26.228Z,190
2018-04-17T08:26:51.840Z,195
2018-04-17T08:27:17.394Z,190
2018-04-17T08:27:42.923Z,185
2018-04-17T08:28:08.495Z,185
2018-04-17T08:28:34.064Z,185
2018-04-17T08:28:59.685Z,185
2018-04-17T08:29:25.279Z,185
2018-04-17T08:29:50.881Z,185
2018-04-17T08:30:16.489Z,185
2018-04-17T08:30:42.088Z,185
2018-04-17T08:31:07.638Z,185
2018-04-17T08:31:33.266Z,185
2018-04-17T08:31:58.931Z,185
2018-04-17T08:32:24.561Z,185
2018-04-17T08:32:50.082Z,185
2018-04-17T08:33:15.706Z,190
2018-04-17T08:33:41.276Z,190
2018-04-17T08:34:06.914Z,190
2018-04-17T08:34:32.563Z,190
2018-04-17T08:34:58.213Z,190
2018-04-17T08:35:23.907Z,190
2018-04-17T08:35:49.508Z,190
2018-04-17T08:36:15.141Z,195
2018-04-17T08:36:40.760Z,195
2018-04-17T08:37:06.339Z,195
2018-04-17T08:37:31.985Z,195
2018-04-17T08:37:57.647Z,195
2018-04-17T08:38:23.174Z,195
2018-04-17T08:38:48.820Z,200
2018-04-17T08:39:14.389Z,195
2018-04-17T08:39:40.023Z,195
2018-04-17T08:40:05.606Z,195
2018-04-17T08:40:31.196Z,195
2018-04-17T08:40:56.809Z,195
2018-04-17T08:41:22.386Z,200
2018-04-17T08:41:48.090Z,195
2018-04-17T08:42:13.689Z,195
2018-04-17T08:42:39.424Z,195
2018-04-17T08:43:05.145Z,195
2018-04-17T08:43:30.781Z,195
2018-04-17T08:43:56.347Z,195
2018-04-17T08:44:21.890Z,195
2018-04-17T08:44:47.604Z,190
2018-04-17T08:45:13.116Z,190
2018-04-17T08:45:38.732Z,190
2018-04-17T08:46:04.301Z,190
2018-04-17T08:46:29.852Z,190
2018-04-17T08:46:55.364Z,195
2018-04-17T08:47:20.946Z,195
2018-04-17T08:47:46.491Z,195
2018-04-17T08:48:12.050Z,195
2018-04-17T08:48:37.613Z,195
2018-04-17T08:49:03.248Z,195
2018-04-17T08:49:28.844Z,195
2018-04-17T08:49:54.480Z,195
2018-04-17T08:50:20.022Z,195
2018-04-17T08:50:45.622Z,195
2018-04-17T08:51:11.243Z,200
2018-04-17T08:51:36.777Z,195
2018-04-17T08:52:02.424Z,195
2018-04-17T08:52:28.053Z,195
2018-04-17T08:52:53.643Z,195
2018-04-17T08:53:19.242Z,195
2018-04-17T08:53:44.745Z,195
2018-04-17T08:54:10.315Z,200
2018-04-17T08:54:35.938Z,195
2018-04-17T08:55:01.585Z,195
2018-04-17T08:55:27.139Z,195
2018-04-17T08:55:52.696Z,195
2018-04-17T08:56:18.292Z,195
2018-04-17T08:56:43.859Z,195
2018-04-17T08:57:09.408Z,195
2018-04-17T08:57:34.932Z,195
2018-04-17T08:58:00.461Z,195
2018-04-17T08:58:26.028Z,195
2018-04-17T08:58:51.640Z,195
2018-04-17T08:59:17.120Z,195
2018-04-17T08:59:42.630Z,195
2018-04-17T09:00:08.231Z,195
2018-04-17T09:00:33.789Z,195
2018-04-17T09:00:59.351Z,195
2018-04-17T09:01:24.882Z,195
2018-04-17T09:01:50.391Z,190
2018-04-17T09:02:15.963Z,190
2018-04-17T09:02:41.535Z,190
2018-04-17T09:03:07.084Z,190
2018-04-17T09:03:32.651Z,190
2018-04-17T09:03:58.222Z,195
2018-04-17T09:04:23.702Z,195
2018-04-17T09:04:49.321Z,195
2018-04-17T09:05:14.855Z,195
2018-04-17T09:05:40.393Z,195
2018-04-17T09:06:49.162Z,195
2018-04-17T09:07:14.677Z,195
2018-04-17T09:08:22.946Z,200
2018-04-17T09:08:48.444Z,200
2018-04-17T09:09:13.997Z,195
2018-04-17T09:09:39.684Z,195
2018-04-17T09:10:05.208Z,195
2018-04-17T09:10:30.750Z,195
2018-04-17T09:10:56.352Z,195
2018-04-17T09:11:21.922Z,195
2018-04-17T09:11:47.621Z,195
2018-04-17T09:12:13.069Z,195
2018-04-17T09:12:38.650Z,195
2018-04-17T09:13:04.259Z,195
2018-04-17T09:13:29.853Z,195
2018-04-17T09:13:55.408Z,195
2018-04-17T09:14:20.916Z,190
2018-04-17T09:14:46.442Z,190
2018-04-17T09:15:12.035Z,185
2018-04-17T09:15:37.719Z,190
2018-04-17T09:16:03.289Z,190
2018-04-17T09:16:28.948Z,195
2018-04-17T09:16:54.513Z,190
2018-04-17T09:17:20.166Z,190
2018-04-17T09:17:45.758Z,190
2018-04-17T09:18:11.363Z,190
2018-04-17T09:18:36.943Z,190
2018-04-17T09:19:02.430Z,190
2018-04-17T09:19:27.977Z,190
2018-04-17T09:19:53.757Z,190
2018-04-17T09:20:19.266Z,190
2018-04-17T09:20:44.939Z,195
2018-04-17T09:21:10.590Z,195
2018-04-17T09:21:36.162Z,195
2018-04-17T09:22:01.865Z,195
2018-04-17T09:22:27.624Z,195
2018-04-17T09:22:53.190Z,200
2018-04-17T09:23:18.742Z,195
2018-04-17T09:23:44.409Z,200
2018-04-17T09:24:09.975Z,200
2018-04-17T09:24:35.735Z,200
2018-04-17T09:25:01.327Z,200
2018-04-17T09:25:26.937Z,200
2018-04-17T09:25:52.575Z,200
2018-04-17T09:26:18.388Z,200
2018-04-17T09:26:44.209Z,200
2018-04-17T09:27:09.633Z,200
2018-04-17T09:27:35.373Z,200
2018-04-17T09:28:01.002Z,200
2018-04-17T09:28:26.596Z,200
2018-04-17T09:28:52.192Z,205
2018-04-17T09:29:17.810Z,200
2018-04-17T09:29:43.349Z,200
2018-04-17T09:30:08.975Z,205
2018-04-17T09:30:34.448Z,205
2018-04-17T09:31:00.045Z,210
2018-04-17T09:31:25.652Z,215
2018-04-17T09:31:51.268Z,215
2018-04-17T09:32:16.873Z,215
2018-04-17T09:32:42.432Z,215
2018-04-17T09:34:01.515Z,215
2018-04-17T09:34:27.081Z,215
2018-04-17T09:34:52.622Z,210
2018-04-17T09:35:18.188Z,210
2018-04-17T09:35:43.834Z,210
2018-04-17T09:36:09.470Z,205
2018-04-17T09:36:35.005Z,200
2018-04-17T09:37:00.659Z,200
2018-04-17T09:37:26.229Z,205
2018-04-17T09:37:51.859Z,200
2018-04-17T09:38:17.521Z,195
2018-04-17T09:38:43.183Z,190
2018-04-17T09:39:09.016Z,195
2018-04-17T09:39:34.558Z,200
2018-04-17T09:40:00.181Z,205
2018-04-17T09:40:25.608Z,210
2018-04-17T09:40:51.232Z,205
2018-04-17T09:41:16.780Z,205
2018-04-17T09:41:42.421Z,210
2018-04-17T09:42:08.007Z,210
2018-04-17T09:42:33.552Z,205
2018-04-17T09:42:59.232Z,205
2018-04-17T09:43:24.702Z,205
2018-04-17T09:43:50.257Z,205
2018-04-17T09:44:15.864Z,205
2018-04-17T09:44:41.456Z,205
2018-04-17T09:45:07.011Z,205
2018-04-17T09:45:32.430Z,205
2018-04-17T09:45:57.995Z,205
2018-04-17T09:46:23.508Z,205
2018-04-17T09:46:49.060Z,205
2018-04-17T09:47:14.666Z,200
2018-04-17T09:47:40.296Z,200
2018-04-17T09:48:05.815Z,205
2018-04-17T09:48:31.429Z,205
2018-04-17T09:48:57.040Z,205
2018-04-17T09:49:22.776Z,205
2018-04-17T09:49:48.493Z,205
2018-04-17T09:50:14.037Z,205
2018-04-17T09:50:39.786Z,205
2018-04-17T09:51:05.269Z,205
2018-04-17T09:51:30.893Z,210
2018-04-17T09:51:56.420Z,210
2018-04-17T09:52:22.025Z,215
2018-04-17T09:52:47.520Z,215
2018-04-17T09:53:13.294Z,200
2018-04-17T09:53:38.810Z,200
2018-04-17T09:54:04.965Z,210
2018-04-17T09:54:30.711Z,215
2018-04-17T09:54:56.495Z,220
2018-04-17T09:55:22.142Z,230
2018-04-17T09:55:47.652Z,235
2018-04-17T09:56:13.477Z,245
2018-04-17T09:56:39.173Z,245
2018-04-17T09:57:05.546Z,250
2018-04-17T09:57:30.471Z,255
2018-04-17T09:57:56.080Z,260
2018-04-17T09:58:21.954Z,260
2018-04-17T09:58:47.482Z,265
2018-04-17T09:59:13.071Z,265
2018-04-17T09:59:38.726Z,265
2018-04-17T10:00:04.302Z,270
2018-04-17T10:00:29.991Z,270
2018-04-17T10:00:55.377Z,270
2018-04-17T10:01:21.003Z,265
2018-04-17T10:01:46.667Z,270
2018-04-17T10:02:12.144Z,265
2018-04-17T10:02:37.761Z,260
2018-04-17T10:03:03.331Z,260
2018-04-17T10:03:28.902Z,260
2018-04-17T10:03:54.483Z,260
2018-04-17T10:04:20.132Z,260
2018-04-17T10:04:45.710Z,260
2018-04-17T10:05:11.275Z,260
2018-04-17T10:05:36.856Z,260
2018-04-17T10:06:02.576Z,265
2018-04-17T10:06:28.218Z,265
2018-04-17T10:06:53.762Z,265
2018-04-17T10:07:19.280Z,265
2018-04-17T10:07:44.956Z,270
2018-04-17T10:08:10.529Z,270
2018-04-17T10:08:36.109Z,265